createdAt,value
2022-08-11T00:02:00.166Z,2.72
2022-08-11T00:04:27.742Z,2.47
2022-08-11T00:06:55.002Z,3.00
2022-08-11T00:09:31.617Z,2.63
2022-08-11T00:12:13.986Z,2.55
2022-08-11T00:14:40.997Z,3.03
2022-08-11T00:17:15.818Z,3.17
2022-08-11T00:20:13.298Z,3.22
2022-08-11T00:22:34.761Z,3.05
2022-08-11T00:25:10.200Z,2.67
2022-08-11T00:27:39.536Z,3.13
2022-08-11T00:30:08.377Z,3.08
2022-08-11T00:32:37.574Z,2.90
2022-08-11T00:35:54.097Z,2.72
2022-08-11T00:37:56.929Z,2.83
2022-08-11T00:40:32.883Z,2.60
2022-08-11T00:43:23.886Z,2.97
2022-08-11T00:46:20.653Z,2.55
2022-08-11T00:49:13.959Z,2.55
2022-08-11T00:52:34.424Z,2.90
2022-08-11T00:55:26.433Z,3.10
2022-08-11T00:58:48.346Z,3.00
2022-08-11T01:01:17.677Z,2.65
2022-08-11T01:04:02.911Z,2.80
2022-08-11T01:06:51.884Z,2.42
2022-08-11T01:09:54.832Z,3.03
2022-08-11T01:12:36.335Z,2.78
2022-08-11T01:15:24.529Z,2.85
2022-08-11T01:17:57.090Z,2.35
2022-08-11T01:20:49.405Z,2.88
2022-08-11T01:23:41.181Z,2.67
2022-08-11T01:27:02.796Z,2.65
2022-08-11T01:30:06.703Z,2.97
2022-08-11T01:32:45.134Z,2.72
2022-08-11T01:35:42.494Z,2.72
2022-08-11T01:38:29.305Z,2.75
2022-08-11T01:41:25.355Z,3.30
2022-08-11T01:44:29.431Z,2.58
2022-08-11T01:47:53.212Z,2.90
2022-08-11T01:51:04.035Z,2.35
2022-08-11T01:53:33.671Z,2.60
2022-08-11T01:56:16.931Z,3.08
2022-08-11T01:59:08.266Z,2.70
2022-08-11T02:02:04.237Z,2.95
2022-08-11T02:04:42.227Z,2.72
2022-08-11T02:07:26.209Z,2.78
2022-08-11T02:10:35.280Z,2.75
2022-08-11T02:13:16.970Z,2.95
2022-08-11T02:16:08.163Z,3.00
2022-08-11T02:18:59.058Z,2.80
2022-08-11T02:21:57.031Z,2.90
2022-08-11T02:24:44.809Z,2.45
2022-08-11T02:27:38.619Z,2.78
2022-08-11T02:30:09.956Z,3.00
2022-08-11T02:33:09.074Z,2.72
2022-08-11T02:35:49.301Z,2.97
2022-08-11T02:38:30.838Z,2.67
2022-08-11T02:41:33.993Z,2.63
2022-08-11T02:44:16.401Z,2.90
2022-08-11T02:47:09.394Z,3.00
2022-08-11T02:50:06.192Z,2.78
2022-08-11T02:52:50.691Z,2.63
2022-08-11T02:55:56.461Z,2.78
2022-08-11T02:58:36.549Z,2.80
2022-08-11T03:01:23.332Z,2.90
2022-08-11T03:03:55.230Z,3.00
2022-08-11T03:06:35.694Z,2.65
2022-08-11T03:09:11.060Z,2.95
2022-08-11T03:12:14.604Z,2.90
2022-08-11T03:15:17.484Z,2.75
2022-08-11T03:18:16.400Z,2.90
2022-08-11T03:20:49.555Z,3.03
2022-08-11T03:23:47.356Z,2.70
2022-08-11T03:26:26.260Z,2.75
2022-08-11T03:29:10.593Z,3.05
2022-08-11T03:31:55.746Z,2.70
2022-08-11T03:34:26.004Z,3.13
2022-08-11T03:37:48.432Z,2.92
2022-08-11T03:40:55.718Z,3.03
2022-08-11T03:43:29.395Z,3.00
2022-08-11T03:46:06.502Z,3.00
2022-08-11T03:48:48.934Z,3.33
2022-08-11T03:51:25.031Z,3.13
2022-08-11T03:54:16.409Z,2.65
2022-08-11T03:57:09.250Z,2.95
2022-08-11T03:59:51.251Z,2.83
2022-08-11T04:02:50.574Z,3.03
2022-08-11T04:05:47.687Z,2.80
2022-08-11T04:08:51.805Z,2.83
2022-08-11T04:11:27.635Z,2.95
2022-08-11T04:14:44.913Z,3.00
2022-08-11T04:17:47.630Z,2.70
2022-08-11T04:20:43.424Z,3.08
2022-08-11T04:24:35.793Z,2.90
2022-08-11T04:26:57.673Z,2.83
2022-08-11T04:30:01.983Z,3.33
2022-08-11T04:32:55.220Z,2.85
2022-08-11T04:35:52.766Z,3.00
2022-08-11T04:38:48.994Z,3.05
2022-08-11T04:41:57.024Z,3.35
2022-08-11T04:44:35.331Z,2.97
2022-08-11T04:48:04.504Z,2.90
2022-08-11T04:51:20.483Z,3.28
2022-08-11T04:54:18.600Z,3.22
2022-08-11T04:57:06.452Z,3.20
2022-08-11T05:00:16.261Z,3.10
2022-08-11T05:03:27.670Z,3.25
2022-08-11T05:06:38.805Z,3.15
2022-08-11T05:09:20.514Z,3.28
2022-08-11T05:12:07.869Z,3.10
2022-08-11T05:14:59.564Z,3.05
2022-08-11T05:18:18.534Z,3.22
2022-08-11T05:21:15.532Z,3.10
2022-08-11T05:24:12.504Z,3.22
2022-08-11T05:27:04.653Z,3.40
2022-08-11T05:30:03.273Z,3.42
2022-08-11T05:33:00.891Z,3.20
2022-08-11T05:36:02.435Z,3.00
2022-08-11T05:38:51.402Z,3.28
2022-08-11T05:41:40.163Z,3.30
2022-08-11T05:44:25.505Z,3.45
2022-08-11T05:47:10.530Z,3.72
2022-08-11T05:49:58.183Z,3.70
2022-08-11T05:52:49.229Z,3.50
2022-08-11T05:56:03.130Z,3.40
2022-08-11T05:58:42.395Z,4.05
2022-08-11T06:01:13.543Z,3.65
2022-08-11T06:04:03.081Z,3.80
2022-08-11T06:06:30.486Z,3.60
2022-08-11T06:08:59.519Z,3.80
2022-08-11T06:11:43.190Z,3.40
2022-08-11T06:14:12.302Z,3.85
2022-08-11T06:16:42.049Z,3.75
2022-08-11T06:19:10.351Z,3.65
2022-08-11T06:21:37.877Z,4.28
2022-08-11T06:24:11.258Z,3.50
2022-08-11T06:27:01.225Z,3.60
2022-08-11T06:29:37.893Z,3.55
2022-08-11T06:32:14.531Z,3.38
2022-08-11T06:34:59.694Z,3.63
2022-08-11T06:38:23.480Z,3.45
2022-08-11T06:41:13.731Z,3.72
2022-08-11T06:44:05.962Z,3.00
2022-08-11T06:46:39.271Z,3.30
2022-08-11T06:49:28.147Z,3.67
2022-08-11T06:52:01.827Z,3.50
2022-08-11T06:54:35.254Z,3.47
2022-08-11T06:57:30.508Z,3.50
2022-08-11T07:00:17.324Z,3.63
2022-08-11T07:03:09.138Z,3.53
2022-08-11T07:06:11.104Z,3.08
2022-08-11T07:09:29.266Z,3.42
2022-08-11T07:12:26.585Z,3.30
2022-08-11T07:15:13.959Z,3.45
2022-08-11T07:18:09.613Z,3.50
2022-08-11T07:21:01.417Z,3.47
2022-08-11T07:23:52.963Z,3.38
2022-08-11T07:26:40.469Z,3.78
2022-08-11T07:29:09.836Z,3.80
2022-08-11T07:31:50.102Z,3.70
2022-08-11T07:34:22.605Z,3.25
2022-08-11T07:37:17.964Z,3.63
2022-08-11T07:39:46.596Z,3.80
2022-08-11T07:42:23.896Z,3.45
2022-08-11T07:45:11.104Z,3.40
2022-08-11T07:47:57.989Z,3.40
2022-08-11T07:50:43.985Z,3.20
2022-08-11T07:53:13.022Z,3.47
2022-08-11T07:55:51.483Z,3.58
2022-08-11T07:58:45.545Z,3.45
2022-08-11T08:01:45.929Z,3.20
2022-08-11T08:04:33.471Z,3.17
2022-08-11T08:07:22.052Z,3.47
2022-08-11T08:10:07.902Z,3.15
2022-08-11T08:12:54.352Z,3.78
2022-08-11T08:15:41.250Z,3.88
2022-08-11T08:18:26.751Z,3.70
2022-08-11T08:20:56.593Z,4.00
2022-08-11T08:23:35.321Z,4.20
2022-08-11T08:26:04.608Z,3.95
2022-08-11T08:28:33.528Z,3.70
2022-08-11T08:31:00.503Z,3.75
2022-08-11T08:33:30.350Z,3.78
2022-08-11T08:36:12.425Z,3.60
2022-08-11T08:38:41.571Z,3.63
2022-08-11T08:41:09.946Z,3.50
2022-08-11T08:43:49.047Z,3.53
2022-08-11T08:46:20.646Z,3.92
2022-08-11T08:48:49.112Z,3.20
2022-08-11T08:51:54.874Z,3.53
2022-08-11T08:54:29.015Z,3.63
2022-08-11T08:56:57.249Z,3.95
2022-08-11T08:59:27.366Z,3.53
2022-08-11T09:02:14.220Z,3.72
2022-08-11T09:04:44.551Z,3.08
2022-08-11T09:07:13.399Z,3.00
2022-08-11T09:09:51.953Z,3.20
2022-08-11T09:12:38.385Z,2.97
2022-08-11T09:15:09.155Z,3.72
2022-08-11T09:17:40.799Z,2.75
2022-08-11T09:20:21.485Z,2.90
2022-08-11T09:26:17.782Z,2.97
2022-08-11T09:28:45.743Z,3.42
2022-08-11T09:31:14.243Z,2.83
2022-08-11T09:33:42.906Z,3.42
2022-08-11T09:36:30.416Z,3.47
2022-08-11T09:39:16.625Z,3.25
2022-08-11T09:41:55.735Z,2.95
2022-08-11T09:44:49.397Z,3.15
2022-08-11T09:47:28.575Z,3.22
2022-08-11T09:50:00.147Z,3.22
2022-08-11T09:52:28.784Z,3.03
2022-08-11T09:54:55.615Z,3.60
2022-08-11T09:57:41.755Z,3.20
2022-08-11T10:00:13.593Z,3.13
2022-08-11T10:02:49.380Z,2.83
2022-08-11T10:05:37.774Z,3.45
2022-08-11T10:08:07.300Z,2.65
2022-08-11T10:10:38.922Z,3.13
2022-08-11T10:14:09.263Z,2.95
2022-08-11T10:16:16.271Z,2.85
2022-08-11T10:18:52.829Z,3.05
2022-08-11T10:21:28.942Z,2.90
2022-08-11T10:24:17.207Z,3.00
2022-08-11T10:26:52.295Z,3.00
2022-08-11T10:29:44.478Z,2.97
2022-08-11T10:32:49.369Z,3.08
2022-08-11T10:35:26.388Z,2.80
2022-08-11T10:38:05.747Z,2.58
2022-08-11T10:40:35.805Z,2.53
2022-08-11T10:43:03.618Z,3.10
2022-08-11T10:45:50.282Z,2.72
2022-08-11T10:48:21.073Z,2.95
2022-08-11T10:51:08.145Z,3.10
2022-08-11T10:53:54.898Z,3.00
2022-08-11T10:56:40.746Z,2.60
2022-08-11T10:59:09.264Z,2.80
2022-08-11T11:01:42.524Z,2.20
2022-08-11T11:04:21.208Z,2.67
2022-08-11T11:07:03.688Z,2.85
2022-08-11T11:09:33.099Z,2.72
2022-08-11T11:12:39.541Z,2.85
2022-08-11T11:15:25.734Z,2.47
2022-08-11T11:17:56.282Z,3.13
2022-08-11T11:20:37.022Z,2.38
2022-08-11T11:23:10.137Z,2.55
2022-08-11T11:26:06.487Z,2.53
2022-08-11T11:28:51.716Z,2.50
2022-08-11T11:31:50.993Z,2.60
2022-08-11T11:34:37.894Z,2.60
2022-08-11T11:37:20.849Z,3.00
2022-08-11T11:39:47.991Z,2.67
2022-08-11T11:42:16.509Z,2.80
2022-08-11T11:44:45.116Z,2.90
2022-08-11T11:47:13.203Z,2.55
2022-08-11T11:49:43.864Z,2.50
2022-08-11T11:52:21.033Z,2.70
2022-08-11T11:54:50.365Z,2.28
2022-08-11T11:57:36.996Z,2.67
2022-08-11T12:00:33.183Z,2.42
2022-08-11T12:03:03.158Z,2.70
2022-08-11T12:05:33.602Z,2.20
2022-08-11T12:08:16.038Z,2.60
2022-08-11T12:11:28.665Z,2.20
2022-08-11T12:13:58.519Z,2.40
2022-08-11T12:16:34.806Z,2.10
2022-08-11T12:19:06.053Z,2.40
2022-08-11T12:21:35.005Z,2.63
2022-08-11T12:24:21.008Z,2.58
2022-08-11T12:27:15.152Z,2.33
2022-08-11T12:29:35.474Z,2.50
2022-08-11T12:32:07.189Z,2.47
2022-08-11T12:34:33.855Z,2.67
2022-08-11T12:37:05.614Z,2.45
2022-08-11T12:40:16.573Z,2.40
2022-08-11T12:43:03.996Z,2.47
2022-08-11T12:45:38.567Z,2.40
2022-08-11T12:48:58.915Z,2.65
2022-08-11T12:52:13.120Z,2.63
2022-08-11T12:54:27.419Z,2.58
2022-08-11T12:57:24.118Z,2.10
2022-08-11T13:00:26.464Z,2.15
2022-08-11T13:03:13.666Z,2.60
2022-08-11T13:05:45.040Z,2.30
2022-08-11T13:08:15.319Z,2.50
2022-08-11T13:11:01.702Z,2.30
2022-08-11T13:13:53.762Z,2.40
2022-08-11T13:16:17.715Z,2.45
2022-08-11T13:18:45.060Z,2.47
2022-08-11T13:21:20.547Z,2.50
2022-08-11T13:23:59.679Z,2.20
2022-08-11T13:26:47.517Z,2.20
2022-08-11T13:29:26.242Z,2.33
2022-08-11T13:31:55.866Z,2.30
2022-08-11T13:34:25.268Z,2.45
2022-08-11T13:36:54.193Z,2.15
2022-08-11T13:39:24.620Z,2.10
2022-08-11T13:41:53.409Z,2.40
2022-08-11T13:44:25.535Z,2.22
2022-08-11T13:46:56.335Z,2.28
2022-08-11T13:49:24.223Z,2.03
2022-08-11T13:51:51.953Z,2.30
2022-08-11T13:54:22.611Z,2.35
2022-08-11T13:56:53.527Z,2.20
2022-08-11T13:59:22.922Z,2.08
2022-08-11T14:02:21.416Z,2.17
2022-08-11T14:04:55.865Z,2.05
2022-08-11T14:07:25.694Z,2.05
2022-08-11T14:09:59.772Z,2.10
2022-08-11T14:15:27.646Z,1.92
2022-08-11T14:18:01.589Z,1.92
2022-08-11T14:20:50.845Z,2.08
2022-08-11T14:23:19.440Z,2.10
2022-08-11T14:26:15.622Z,2.00
2022-08-11T14:28:45.117Z,1.80
2022-08-11T14:31:16.080Z,1.80
2022-08-11T14:34:00.346Z,2.00
2022-08-11T14:36:35.223Z,2.08
2022-08-11T14:39:05.780Z,2.05
2022-08-11T14:42:07.620Z,2.33
2022-08-11T14:44:57.740Z,1.70
2022-08-11T14:47:25.891Z,1.88
2022-08-11T14:50:10.762Z,1.67
2022-08-11T14:52:44.739Z,1.70
2022-08-11T14:55:31.378Z,1.80
2022-08-11T14:57:58.887Z,2.00
2022-08-11T15:00:26.569Z,1.85
2022-08-11T15:03:13.511Z,1.70
2022-08-11T15:06:02.166Z,1.77
2022-08-11T15:08:50.482Z,1.50
2022-08-11T15:11:38.058Z,1.85
2022-08-11T15:14:07.531Z,1.52
2022-08-11T15:16:54.605Z,1.63
2022-08-11T15:19:21.597Z,1.65
2022-08-11T15:22:08.980Z,1.90
2022-08-11T15:24:36.566Z,1.70
2022-08-11T15:27:27.303Z,1.98
2022-08-11T15:30:29.923Z,1.50
2022-08-11T15:33:20.219Z,1.70
2022-08-11T15:36:05.672Z,1.90
2022-08-11T15:38:36.237Z,1.80
2022-08-11T15:41:24.071Z,1.73
2022-08-11T15:44:13.244Z,1.85
2022-08-11T15:46:44.617Z,1.88
2022-08-11T15:50:11.501Z,1.90
2022-08-11T15:52:21.234Z,1.70
2022-08-11T15:54:49.175Z,1.67
2022-08-11T15:57:40.083Z,1.73
2022-08-11T16:00:26.570Z,1.70
2022-08-11T16:02:55.087Z,1.83
2022-08-11T16:05:46.030Z,1.70
2022-08-11T16:08:13.223Z,1.42
2022-08-11T16:10:42.414Z,1.80
2022-08-11T16:13:13.335Z,1.70
2022-08-11T16:16:04.080Z,1.77
2022-08-11T16:18:43.432Z,2.00
2022-08-11T16:21:34.053Z,1.63
2022-08-11T16:24:06.117Z,1.55
2022-08-11T16:27:10.332Z,1.75
2022-08-11T16:29:25.308Z,1.60
2022-08-11T16:32:14.459Z,1.77
2022-08-11T16:35:02.279Z,1.77
2022-08-11T16:37:49.816Z,1.55
2022-08-11T16:40:17.583Z,1.80
2022-08-11T16:43:11.381Z,1.83
2022-08-11T16:45:58.687Z,1.85
2022-08-11T16:48:35.006Z,1.60
2022-08-11T16:51:03.855Z,1.98
2022-08-11T16:53:49.010Z,1.80
2022-08-11T16:56:24.740Z,1.92
2022-08-11T16:59:13.344Z,1.80
2022-08-11T17:01:41.971Z,1.60
2022-08-11T17:04:53.894Z,1.90
2022-08-11T17:07:43.202Z,2.00
2022-08-11T17:10:52.641Z,1.63
2022-08-11T17:13:27.916Z,2.05
2022-08-11T17:16:10.022Z,1.70
2022-08-11T17:18:57.749Z,1.63
2022-08-11T17:21:57.741Z,1.92
2022-08-11T17:24:27.533Z,1.70
2022-08-11T17:26:56.951Z,1.92
2022-08-11T17:29:53.827Z,1.65
2022-08-11T17:32:56.669Z,1.50
2022-08-11T17:35:34.133Z,1.92
2022-08-11T17:38:12.883Z,1.50
2022-08-11T17:41:01.685Z,1.67
2022-08-11T17:43:48.845Z,1.75
2022-08-11T17:46:37.590Z,1.85
2022-08-11T17:49:08.223Z,1.70
2022-08-11T17:51:56.016Z,1.70
2022-08-11T17:54:43.579Z,1.80
2022-08-11T17:57:30.423Z,1.90
2022-08-11T17:59:57.969Z,1.80
2022-08-11T18:02:51.691Z,1.80
2022-08-11T18:05:21.542Z,2.07
2022-08-11T18:08:10.197Z,1.70
2022-08-11T18:10:57.444Z,1.70
2022-08-11T18:13:43.666Z,1.77
2022-08-11T18:16:30.038Z,1.63
2022-08-11T18:19:15.796Z,1.60
2022-08-11T18:22:14.812Z,1.92
2022-08-11T18:25:12.426Z,1.70
2022-08-11T18:28:00.868Z,1.92
2022-08-11T18:30:49.936Z,1.95
2022-08-11T18:34:05.969Z,1.60
2022-08-11T18:36:49.452Z,1.60
2022-08-11T18:39:38.455Z,1.63
2022-08-11T18:42:29.592Z,1.63
2022-08-11T18:45:19.774Z,1.58
2022-08-11T18:48:09.271Z,1.73
2022-08-11T18:51:00.674Z,1.80
2022-08-11T18:54:09.248Z,1.50
2022-08-11T18:56:54.609Z,1.88
2022-08-11T18:59:44.300Z,1.70
2022-08-11T19:02:31.277Z,1.88
2022-08-11T19:05:18.828Z,2.05
2022-08-11T19:08:26.245Z,1.75
2022-08-11T19:11:14.249Z,1.50
2022-08-11T19:14:03.971Z,1.77
2022-08-11T19:16:51.127Z,2.17
2022-08-11T19:19:38.119Z,1.92
2022-08-11T19:22:23.981Z,2.10
2022-08-11T19:25:10.512Z,1.80
2022-08-11T19:27:58.197Z,2.10
2022-08-11T19:30:45.006Z,1.98
2022-08-11T19:34:03.092Z,1.95
2022-08-11T19:36:37.285Z,2.00
2022-08-11T19:39:23.088Z,2.03
2022-08-11T19:42:08.732Z,2.65
2022-08-11T19:44:54.064Z,1.83
2022-08-11T19:47:40.952Z,2.03
2022-08-11T19:50:27.212Z,1.90
2022-08-11T19:53:16.891Z,1.80
2022-08-11T19:56:05.432Z,1.92
2022-08-11T19:58:52.317Z,1.92
2022-08-11T20:01:37.952Z,2.20
2022-08-11T20:04:43.506Z,1.90
2022-08-11T20:07:32.288Z,1.75
2022-08-11T20:10:22.442Z,1.90
2022-08-11T20:13:08.841Z,2.10
2022-08-11T20:15:57.707Z,2.13
2022-08-11T20:18:44.653Z,2.38
2022-08-11T20:21:33.501Z,2.42
2022-08-11T20:24:20.757Z,2.10
2022-08-11T20:27:07.347Z,2.00
2022-08-11T20:30:07.239Z,2.40
2022-08-11T20:32:54.441Z,2.40
2022-08-11T20:35:40.210Z,2.40
2022-08-11T20:38:28.098Z,2.05
2022-08-11T20:41:16.269Z,2.42
2022-08-11T20:44:05.660Z,2.10
2022-08-11T20:46:58.229Z,2.50
2022-08-11T20:49:53.834Z,2.20
2022-08-11T20:52:49.783Z,2.63
2022-08-11T20:55:52.142Z,2.50
2022-08-11T21:01:52.114Z,2.35
2022-08-11T21:04:54.355Z,2.13
2022-08-11T21:07:55.619Z,2.40
2022-08-11T21:10:51.140Z,1.98
2022-08-11T21:13:41.395Z,2.47
2022-08-11T21:16:31.763Z,2.00
2022-08-11T21:19:59.688Z,2.22
2022-08-11T21:22:58.565Z,2.33
2022-08-11T21:25:48.088Z,2.55
2022-08-11T21:28:36.878Z,2.35
2022-08-11T21:31:24.928Z,2.67
2022-08-11T21:34:11.008Z,2.20
2022-08-11T21:36:58.755Z,2.15
2022-08-11T21:39:46.054Z,2.33
2022-08-11T21:42:32.127Z,2.28
2022-08-11T21:45:18.992Z,2.45
2022-08-11T21:48:04.925Z,2.03
2022-08-11T21:50:50.004Z,2.13
2022-08-11T21:53:36.457Z,2.13
2022-08-11T21:56:22.630Z,2.08
2022-08-11T21:59:14.803Z,2.10
2022-08-11T22:02:00.734Z,2.20
2022-08-11T22:04:46.545Z,2.20
2022-08-11T22:07:31.826Z,2.20
2022-08-11T22:10:40.783Z,2.35
2022-08-11T22:13:30.516Z,2.20
2022-08-11T22:16:19.158Z,2.30
2022-08-11T22:19:10.519Z,2.33
2022-08-11T22:22:03.593Z,2.20
2022-08-11T22:24:51.265Z,2.30
2022-08-11T22:27:36.550Z,1.90
2022-08-11T22:30:23.345Z,1.95
2022-08-11T22:33:09.049Z,2.08
2022-08-11T22:35:54.283Z,2.40
2022-08-11T22:38:40.448Z,2.17
2022-08-11T22:41:25.535Z,2.38
2022-08-11T22:44:10.585Z,2.05
2022-08-11T22:46:55.712Z,2.38
2022-08-11T22:49:57.061Z,2.30
2022-08-11T22:52:43.892Z,2.30
2022-08-11T22:55:29.217Z,2.25
2022-08-11T22:58:14.708Z,2.40
2022-08-11T23:01:00.495Z,2.45
2022-08-11T23:03:46.007Z,2.30
2022-08-11T23:06:32.913Z,2.80
2022-08-11T23:09:19.421Z,2.28
2022-08-11T23:12:06.672Z,2.30
2022-08-11T23:14:57.544Z,2.42
2022-08-11T23:17:43.582Z,2.67
2022-08-11T23:20:39.105Z,2.90
2022-08-11T23:23:27.054Z,2.80
2022-08-11T23:26:14.270Z,2.60
2022-08-11T23:29:05.059Z,2.38
2022-08-11T23:31:53.375Z,2.60
2022-08-11T23:35:37.343Z,2.35
2022-08-11T23:37:48.684Z,2.33
2022-08-11T23:40:34.144Z,2.38
2022-08-11T23:43:19.966Z,2.30
2022-08-11T23:46:04.929Z,2.88
2022-08-11T23:48:50.791Z,2.50
2022-08-11T23:51:40.793Z,2.28
2022-08-11T23:54:27.365Z,2.53
2022-08-11T23:57:13.232Z,2.20
2022-08-11T23:59:58.077Z,2.70
